• Join FlightAware (Why Join?)
  • Login
  • US Flag 
Rudolph Flight #1: Arrived! 
08:50AM EST


 

Airport Tracker/Info


-or-


 

Live Flight TrackerFlight Track Log ✈ N1250V ✈ 26-Dec-2013 ✈ KLUK - KAPF

Flight Track Log - Related Links

Times and Time Zones

All times are in EST time to prevent confusion due to time zone crossing. See the N1250V flight status page for this flight to view local times or setup timezone preferences in your user account.

Time Position Orientation Groundspeed Altitude Reporting Facility
EST Latitude Longitude Course Direction KTS MPH feet Rate Location/Type
01:14PM 39.1000 -84.4333 180° South 133 153 1,100  Level Cincinnati TRACON
01:15PM 39.0833 -84.4333 180° South 169 194 1,900 960 Climbing Cincinnati TRACON
01:16PM 39.0333 -84.4333 180° South 211 243 2,500 900 Climbing Cincinnati TRACON
01:17PM 38.9667 -84.4500 191° South 226 260 3,700 1,560 Climbing Cincinnati TRACON
01:18PM 38.9000 -84.4500 180° South 259 298 5,700 1,560 Climbing Cincinnati TRACON
01:19PM 38.8297 -84.4658 190° South 274 315 7,100 1,620 Climbing Indianapolis Center
01:20PM 38.7478 -84.4642 179° South 293 337 9,200 2,460 Climbing Indianapolis Center
01:21PM 38.6536 -84.4656 181° South 280 322 12,300 2,280 Climbing Indianapolis Center
01:22PM 38.5786 -84.4661 180° South 279 321 14,000 1,620 Climbing Indianapolis Center
01:23PM 38.5003 -84.4667 180° South 280 322 15,700 1,500 Climbing Indianapolis Center
01:24PM 38.4214 -84.4686 181° South 281 323 17,200 1,260 Climbing Indianapolis Center
01:25PM 38.3300 -84.4692 180° South 281 323 18,400 1,200 Climbing Indianapolis Center
01:26PM 38.2511 -84.4697 180° South 283 326 19,800 1,320 Climbing Indianapolis Center
01:27PM 38.1736 -84.4711 181° South 279 321 21,200 1,200 Climbing Indianapolis Center
01:28PM 38.0967 -84.4731 181° South 275 316 22,400 1,020 Climbing Indianapolis Center
01:29PM 38.0183 -84.4733 180° South 279 321 23,400 1,020 Climbing Indianapolis Center
01:30PM 37.9231 -84.4611 174° South 295 339 24,600 1,140 Climbing Indianapolis Center
01:31PM 37.8414 -84.4386 168° South 300 345 25,800 960 Climbing Indianapolis Center
01:32PM 37.7592 -84.4156 168° South 299 344 26,700 780 Climbing Indianapolis Center
01:33PM 37.6781 -84.3911 167° South 299 344 27,500 720 Climbing Indianapolis Center
01:35PM 37.5944 -84.3669 167° South 305 351 28,200 780 Climbing Indianapolis Center
01:36PM 37.4981 -84.3389 167° South 304 350 29,200 780 Climbing Indianapolis Center
01:37PM 37.4142 -84.3153 167° South 308 354 29,900 660 Climbing Indianapolis Center
01:38PM 37.3319 -84.2914 167° South 304 350 30,600 660 Climbing Indianapolis Center
01:39PM 37.2506 -84.2694 168° South 301 346 31,300 600 Climbing Indianapolis Center
01:40PM 37.1681 -84.2458 167° South 301 346 31,900 480 Climbing Indianapolis Center
01:41PM 37.0878 -84.2228 167° South 298 343 32,300 420 Climbing Indianapolis Center
01:42PM 36.9892 -84.1956 168° South 307 353 32,800 300 Climbing Indianapolis Center
01:43PM 36.9061 -84.1728 168° South 307 353 33,000 60 Climbing Indianapolis Center
01:44PM 36.8194 -84.1475 167° South 315 362 33,000  Level Indianapolis Center
01:45PM 36.7289 -84.1231 168° South 327 376 33,000  Level Indianapolis Center
01:46PM 36.6397 -84.0986 168° South 329 379 33,000  Level Indianapolis Center
01:47PM 36.5333 -84.0686 167° South 334 384 33,000  Level Indianapolis Center
01:49PM 36.3622 -84.0214 167° South 334 384 33,000  Level Indianapolis Center
01:50PM 36.2536 -83.9914 167° South 332 382 33,000  Level Indianapolis Center
01:51PM 36.1619 -83.9658 167° South 334 384 33,000  Level Indianapolis Center
01:52PM 36.0714 -83.9414 168° South 333 383 33,000  Level Indianapolis Center
01:53PM 35.9769 -83.9181 169° South 336 387 33,000  Level Atlanta Center
01:54PM 35.8914 -83.8978 169° South 330 380 33,000  Level Atlanta Center
01:55PM 35.8122 -83.9183 192° South 305 351 33,000  Level Atlanta Center
01:56PM 35.7328 -83.9389 192° South 294 338 33,000  Level Atlanta Center
01:57PM 35.6556 -83.9569 191° South 294 338 33,000  Level Atlanta Center
01:58PM 35.5806 -83.9750 191° South 294 338 33,000  Level Atlanta Center
01:59PM 35.5014 -83.9953 192° South 294 338 33,000  Level Atlanta Center
02:00PM 35.4242 -84.0133 191° South 294 338 33,000  Level Atlanta Center
02:01PM 35.3469 -84.0311 191° South 294 338 33,000  Level Atlanta Center
02:02PM 35.2717 -84.0514 192° South 294 338 33,000  Level Atlanta Center
02:03PM 35.1925 -84.0719 192° South 294 338 33,000  Level Atlanta Center
02:04PM 35.1153 -84.0894 191° South 294 338 33,000  Level Atlanta Center
02:05PM 35.0403 -84.1072 191° South 294 338 33,000  Level Atlanta Center
02:06PM 34.9608 -84.1250 190° South 294 338 33,000  Level Atlanta Center
02:07PM 34.8836 -84.1450 192° South 294 338 33,000  Level Atlanta Center
02:08PM 34.8086 -84.1628 191° South 294 338 33,000  Level Atlanta Center
02:09PM 34.7250 -84.1828 191° South 294 338 33,000  Level Atlanta Center
02:10PM 34.6583 -84.1953 189° South 283 326 33,000  Level Atlanta Center
02:11PM 34.5789 -84.2128 190° South 283 326 33,000  Level Atlanta Center
02:12PM 34.5017 -84.2303 191° South 278 320 33,000  Level Atlanta Center
02:13PM 34.4244 -84.2503 192° South 278 320 33,000  Level Atlanta Center
02:14PM 34.3450 -84.2703 192° South 283 326 33,000  Level Atlanta Center
02:15PM 34.2594 -84.2875 189° South 283 326 33,000  Level Atlanta Center
02:16PM 34.1822 -84.3075 192° South 283 326 33,000  Level Atlanta Center
02:17PM 34.1069 -84.3272 192° South 292 336 33,000  Level Atlanta Center
02:18PM 34.0297 -84.3447 191° South 294 338 33,000  Level Atlanta Center
02:19PM 33.9544 -84.3619 191° South 294 338 33,000  Level Atlanta Center
02:20PM 33.8689 -84.3817 191° South 289 333 33,000  Level Atlanta Center
02:21PM 33.7936 -84.3986 191° South 289 333 33,000  Level Atlanta Center
02:22PM 33.7122 -84.4158 190° South 289 333 33,000  Level Atlanta Center
02:23PM 33.6369 -84.4356 192° South 284 327 33,000  Level Atlanta Center
02:24PM 33.5578 -84.4403 183° South 293 337 33,000  Level Atlanta Center
02:25PM 33.4742 -84.4372 178° South 293 337 33,000  Level Atlanta Center
02:26PM 33.3886 -84.4344 178° South 298 343 33,000  Level Atlanta Center
02:27PM 33.3053 -84.4364 181° South 306 352 33,000  Level Atlanta Center
02:28PM 33.2217 -84.4311 177° South 306 352 33,000  Level Atlanta Center
02:29PM 33.1383 -84.4308 180° South 306 352 33,000  Level Atlanta Center
02:30PM 33.0547 -84.4278 178° South 306 352 33,000  Level Atlanta Center
02:31PM 32.9692 -84.4300 181° South 306 352 33,000  Level Atlanta Center
02:32PM 32.8878 -84.4272 178° South 306 352 33,000  Level Atlanta Center
02:33PM 32.8022 -84.4269 180° South 306 352 33,000  Level Atlanta Center
02:34PM 32.7292 -84.4217 177° South 306 352 33,000  Level Atlanta Center
02:35PM 32.6436 -84.4186 178° South 306 352 33,000  Level Atlanta Center
02:36PM 32.5600 -84.4158 178° South 306 352 33,000  Level Atlanta Center
02:37PM 32.4744 -84.4181 181° South 306 352 33,000  Level Atlanta Center
02:38PM 32.3889 -84.4128 177° South 306 352 33,000  Level Atlanta Center
02:39PM 32.3011 -84.4122 180° South 306 352 33,000  Level Atlanta Center
02:40PM 32.2156 -84.4119 180° South 306 352 33,000 480 Level Atlanta Center
02:41PM 32.1300 -84.4092 178° South 306 352 34,000 780 Climbing Atlanta Center
02:42PM 32.0528 -84.4089 180° South 296 341 34,600 540 Climbing Atlanta Center
02:43PM 31.9947 -84.4017 174° South 290 334 34,900 240 Climbing Jacksonville Center
02:44PM 31.9236 -84.4053 182° South 290 334 35,000  Climbing Jacksonville Center
02:45PM 31.8422 -84.3992 176° South 290 334 35,000  Level Jacksonville Center
02:46PM 31.7589 -84.3978 179° South 290 334 35,000  Level Jacksonville Center
02:47PM 31.6733 -84.3986 180° South 290 334 35,000  Level Jacksonville Center
02:48PM 31.5897 -84.3975 179° South 296 341 35,000  Level Jacksonville Center
02:49PM 31.5042 -84.3936 178° South 302 348 35,000  Level Jacksonville Center
02:50PM 31.4186 -84.3947 181° South 307 353 35,000  Level Jacksonville Center
02:51PM 31.3350 -84.3908 178° South 307 353 35,000  Level Jacksonville Center
02:52PM 31.2472 -84.3919 181° South 307 353 35,000  Level Jacksonville Center
02:53PM 31.1639 -84.3906 179° South 307 353 35,000  Level Jacksonville Center
02:54PM 31.0783 -84.3867 178° South 307 353 35,000 -60 Level Jacksonville Center
02:55PM 30.9928 -84.3853 179° South 307 353 34,900  Descending Jacksonville Center
02:56PM 30.9072 -84.3842 179° South 307 353 35,000  Climbing Jacksonville Center
02:57PM 30.8194 -84.3828 179° South 312 359 35,000  Level Jacksonville Center
02:58PM 30.7317 -84.3789 178° South 312 359 35,000  Level Jacksonville Center
02:59PM 30.6442 -84.3775 179° South 312 359 35,000  Level Jacksonville Center
03:00PM 30.5544 -84.3736 178° South 312 359 35,000  Level Jacksonville Center
03:01PM 30.4736 -84.3242 152° Southeast 312 359 35,000  Level Jacksonville Center
03:02PM 30.3864 -84.2653 150° Southeast 333 383 35,000  Level Jacksonville Center
03:03PM 30.2994 -84.2086 151° Southeast 346 398 35,000  Level Jacksonville Center
03:04PM 30.2164 -84.1544 151° Southeast 352 405 35,000  Level Jacksonville Center
03:05PM 30.1292 -84.0983 151° Southeast 352 405 35,000  Level Jacksonville Center
03:06PM 30.0442 -84.0372 148° Southeast 352 405 35,000  Level Jacksonville Center
03:07PM 29.9889 -83.9286 120° Southeast 357 411 35,000  Level Jacksonville Center
03:08PM 29.9772 -83.7942 96° East 375 432 35,000  Level Jacksonville Center
03:09PM 29.9447 -83.6739 107° East 382 440 35,000  Level Jacksonville Center
03:10PM 29.8553 -83.6325 158° South 347 399 35,000  Level Jacksonville Center
03:11PM 29.7656 -83.6175 172° South 313 360 35,000  Level Jacksonville Center
03:12PM 29.6736 -83.6050 173° South 320 368 35,000  Level Jacksonville Center
03:13PM 29.5861 -83.5875 170° South 326 375 35,000  Level Jacksonville Center
03:14PM 29.4964 -83.5703 171° South 331 381 35,000  Level Jacksonville Center
03:15PM 29.4067 -83.5553 172° South 331 381 35,000  Level Jacksonville Center
03:16PM 29.3169 -83.5403 172° South 331 381 35,000  Level Jacksonville Center
03:17PM 29.2294 -83.5256 172° South 331 381 35,000  Level Jacksonville Center
03:18PM 29.1397 -83.5108 172° South 331 381 35,000  Level Jacksonville Center
03:19PM 29.0522 -83.4958 171° South 331 381 35,000  Level Jacksonville Center
03:20PM 28.9686 -83.4811 171° South 339 390 35,000 -300 Level Jacksonville Center
03:21PM 28.8583 -83.4614 171° South 339 390 34,400 -540 Descending Jacksonville Center
03:22PM 28.7644 -83.4492 173° South 339 390 34,000 -360 Descending Jacksonville Center
03:23PM 28.6725 -83.4297 169° South 339 390 33,700 -360 Descending Jacksonville Center
03:25PM 28.4561 -83.3981 173° South 342 394 33,000 -240 Descending Miami Center
03:26PM 28.3608 -83.3808 171° South 347 399 33,000  Level Miami Center
03:27PM 28.2678 -83.3658 172° South 347 399 33,000 -120 Level Miami Center
03:28PM 28.1800 -83.3725 184° South 328 377 32,800 -720 Descending Miami Center
03:29PM 28.0950 -83.4075 200° South 323 372 31,600 -1,200 Descending Miami Center
03:30PM 28.0078 -83.4425 200° South 329 379 30,400 -960 Descending Miami Center
03:31PM 27.9117 -83.4511 185° South 343 395 29,700 -1,020 Descending Miami Center
03:32PM 27.8164 -83.4336 171° South 343 395 28,400 -1,440 Descending Miami Center
03:33PM 27.7192 -83.4142 170° South 350 403 26,900 -1,500 Descending Miami Center
03:34PM 27.6297 -83.3667 155° Southeast 352 405 25,500 -1,200 Descending Miami Center
03:35PM 27.5478 -83.2825 138° Southeast 366 421 24,500 -960 Descending Miami Center
03:36PM 27.4742 -83.2058 137° Southeast 366 421 23,600 -960 Descending Miami Center
03:37PM 27.4022 -83.1342 139° Southeast 361 415 22,600 -900 Descending Miami Center
03:38PM 27.3281 -83.0625 139° Southeast 356 410 21,800 -720 Descending Miami Center
03:39PM 27.2581 -82.9933 139° Southeast 351 404 21,200 -900 Descending Miami Center
03:40PM 27.1881 -82.9219 138° Southeast 346 398 20,000 -1,200 Descending Miami Center
03:41PM 27.1178 -82.8531 139° Southeast 341 392 18,800 -1,020 Descending Miami Center
03:42PM 27.0517 -82.7867 138° Southeast 334 384 18,000 -1,080 Descending Miami Center
03:43PM 26.9856 -82.7228 139° Southeast 323 372 16,700 -1,440 Descending Miami Center
03:44PM 26.9233 -82.6592 138° Southeast 318 366 15,200 -1,440 Descending Miami Center
03:45PM 26.8589 -82.5978 140° Southeast 313 360 13,900 -1,380 Descending Miami Center
03:46PM 26.8047 -82.5414 137° Southeast 302 348 12,500 -1,500 Descending Miami Center
03:47PM 26.7425 -82.4803 139° Southeast 302 348 11,000 -1,140 Descending Miami Center
03:48PM 26.6783 -82.4169 139° Southeast 302 348 10,300 -540 Descending Miami Center
03:49PM 26.6136 -82.3606 142° Southeast 302 348 10,000 -900 Descending Miami Center
03:50PM 26.5425 -82.3083 147° Southeast 288 331 8,600 -1,320 Descending Miami Center
03:51PM 26.4794 -82.2614 146° Southeast 278 320 7,400 -840 Descending Miami Center
03:52PM 26.4164 -82.2167 148° Southeast 273 314 7,000 -240 Descending Miami Center
03:53PM 26.3556 -82.1722 147° Southeast 273 314 7,000  Level Miami Center
03:55PM 26.2595 -82.0957 152° Southeast  Level FlightAware Approximate
04:02PM 26.1524 -81.7756 66° East  Level Estimated
04:03PM 26.1524 -81.7756 66° East  Level Estimated
04:04PM 26.1524 -81.7756 66° East  Level Estimated
04:05PM 26.1524 -81.7756 66° East  Level Estimated
04:06PM 26.1524 -81.7756 66° East  Level Estimated
04:07PM 26.1524 -81.7756 66° East  Level Estimated
04:08PM 26.1524 -81.7756 66° East  Level Estimated
04:09PM 26.1524 -81.7756 66° East  Level Estimated
04:10PM 26.1524 -81.7756 66° East  Level Estimated
04:11PM 26.1524 -81.7756 66° East  Level Estimated
04:12PM 26.1524 -81.7756 66° East  Level Estimated